Ada, Ohio
Current Conditions -  °F | °C
As of 3:53 AM on Sunday 26 Oct 2014 (Local Time) from KAOH Reporting Station
Clear Clear  
Wind Chill: 46°   Ceiling: Unl
Heat Index: 49°   Visibility: 10mi
Dew Point: 34°   Wind: 7mph
Humidity: 56%   Direction: 290°WNW
Pressure: 29.92"   Gusts: NA
Location:  40.78°N, 83.82°W
Report Text: KAOH 260753Z AUTO 29006KT 10SM CLR 09/01 A2992 RMK AO2 SLP129 T00940011
Loading
Personal Weather Stations






























Interactive Weather Map New forecast layout! Learn more

10-Day Weather Forecast

Advertisements
Track Severe Weather on mobile